sensor_id;sensor_type;location;lat;lon;timestamp;temperature;humidity
69387;SHT31;56575;48.942;8.404;2023-03-21T00:01:34;10.78;74.25
69387;SHT31;56575;48.942;8.404;2023-03-21T00:03:59;10.75;74.39
69387;SHT31;56575;48.942;8.404;2023-03-21T00:06:25;10.73;74.54
69387;SHT31;56575;48.942;8.404;2023-03-21T00:08:50;10.75;74.74
69387;SHT31;56575;48.942;8.404;2023-03-21T00:11:15;10.73;74.57
69387;SHT31;56575;48.942;8.404;2023-03-21T00:13:44;10.72;74.65
69387;SHT31;56575;48.942;8.404;2023-03-21T00:16:39;10.75;74.61
69387;SHT31;56575;48.942;8.404;2023-03-21T00:19:10;10.68;74.82
69387;SHT31;56575;48.942;8.404;2023-03-21T00:24:52;10.69;74.94
69387;SHT31;56575;48.942;8.404;2023-03-21T00:27:17;10.71;74.96
69387;SHT31;56575;48.942;8.404;2023-03-21T00:29:46;10.68;74.90
69387;SHT31;56575;48.942;8.404;2023-03-21T00:32:14;10.67;75.14
69387;SHT31;56575;48.942;8.404;2023-03-21T00:34:41;10.71;75.19
69387;SHT31;56575;48.942;8.404;2023-03-21T00:37:16;10.67;75.24
69387;SHT31;56575;48.942;8.404;2023-03-21T00:39:43;10.64;75.10
69387;SHT31;56575;48.942;8.404;2023-03-21T00:42:12;10.59;75.44
69387;SHT31;56575;48.942;8.404;2023-03-21T00:44:38;10.57;75.18
69387;SHT31;56575;48.942;8.404;2023-03-21T00:47:05;10.59;75.58
69387;SHT31;56575;48.942;8.404;2023-03-21T00:49:31;10.59;75.32
69387;SHT31;56575;48.942;8.404;2023-03-21T00:52:02;10.61;75.16
69387;SHT31;56575;48.942;8.404;2023-03-21T00:54:28;10.59;75.04
69387;SHT31;56575;48.942;8.404;2023-03-21T00:56:54;10.58;75.04
69387;SHT31;56575;48.942;8.404;2023-03-21T00:59:19;10.59;75.13
69387;SHT31;56575;48.942;8.404;2023-03-21T01:01:45;10.58;75.08
69387;SHT31;56575;48.942;8.404;2023-03-21T01:04:12;10.59;74.86
69387;SHT31;56575;48.942;8.404;2023-03-21T01:06:40;10.57;75.11
69387;SHT31;56575;48.942;8.404;2023-03-21T01:09:17;10.58;74.78
69387;SHT31;56575;48.942;8.404;2023-03-21T01:11:45;10.55;74.77
69387;SHT31;56575;48.942;8.404;2023-03-21T01:16:51;10.54;75.31
69387;SHT31;56575;48.942;8.404;2023-03-21T01:19:19;10.54;75.20
69387;SHT31;56575;48.942;8.404;2023-03-21T01:21:45;10.51;75.27
69387;SHT31;56575;48.942;8.404;2023-03-21T01:24:10;10.47;75.57
69387;SHT31;56575;48.942;8.404;2023-03-21T01:26:36;10.41;75.50
69387;SHT31;56575;48.942;8.404;2023-03-21T01:36:32;10.33;76.25
69387;SHT31;56575;48.942;8.404;2023-03-21T01:38:57;10.25;76.23
69387;SHT31;56575;48.942;8.404;2023-03-21T01:41:30;10.24;76.19
69387;SHT31;56575;48.942;8.404;2023-03-21T01:43:56;10.16;76.28
69387;SHT31;56575;48.942;8.404;2023-03-21T01:46:41;10.12;76.52
69387;SHT31;56575;48.942;8.404;2023-03-21T01:49:25;10.10;76.55
69387;SHT31;56575;48.942;8.404;2023-03-21T01:51:55;10.06;76.81
69387;SHT31;56575;48.942;8.404;2023-03-21T01:54:24;10.06;76.94
69387;SHT31;56575;48.942;8.404;2023-03-21T01:56:54;10.03;76.84
69387;SHT31;56575;48.942;8.404;2023-03-21T01:59:27;10.04;77.16
69387;SHT31;56575;48.942;8.404;2023-03-21T02:01:55;10.06;76.67
69387;SHT31;56575;48.942;8.404;2023-03-21T02:04:22;10.09;76.80
69387;SHT31;56575;48.942;8.404;2023-03-21T02:06:57;10.03;76.73
69387;SHT31;56575;48.942;8.404;2023-03-21T02:09:27;10.03;76.64
69387;SHT31;56575;48.942;8.404;2023-03-21T02:11:53;10.00;76.46
69387;SHT31;56575;48.942;8.404;2023-03-21T02:14:19;10.06;76.85
69387;SHT31;56575;48.942;8.404;2023-03-21T02:17:27;10.00;76.38
69387;SHT31;56575;48.942;8.404;2023-03-21T02:23:23;10.07;76.47
69387;SHT31;56575;48.942;8.404;2023-03-21T02:29:06;10.14;76.14
69387;SHT31;56575;48.942;8.404;2023-03-21T02:31:51;10.09;75.88
69387;SHT31;56575;48.942;8.404;2023-03-21T02:40:07;10.14;76.40
69387;SHT31;56575;48.942;8.404;2023-03-21T02:42:48;10.09;76.16
69387;SHT31;56575;48.942;8.404;2023-03-21T02:45:20;10.13;76.42
69387;SHT31;56575;48.942;8.404;2023-03-21T02:48:21;10.07;76.59
69387;SHT31;56575;48.942;8.404;2023-03-21T02:50:51;10.04;76.73
69387;SHT31;56575;48.942;8.404;2023-03-21T02:53:19;10.00;77.14
69387;SHT31;56575;48.942;8.404;2023-03-21T02:55:47;10.04;77.13
69387;SHT31;56575;48.942;8.404;2023-03-21T02:58:16;10.00;76.94
69387;SHT31;56575;48.942;8.404;2023-03-21T03:00:43;10.02;77.09
69387;SHT31;56575;48.942;8.404;2023-03-21T03:03:11;10.02;77.28
69387;SHT31;56575;48.942;8.404;2023-03-21T03:05:50;9.99;77.10
69387;SHT31;56575;48.942;8.404;2023-03-21T03:13:50;9.92;77.29
69387;SHT31;56575;48.942;8.404;2023-03-21T03:19:24;9.87;77.66
69387;SHT31;56575;48.942;8.404;2023-03-21T03:22:02;9.86;77.84
69387;SHT31;56575;48.942;8.404;2023-03-21T03:24:45;9.83;78.12
69387;SHT31;56575;48.942;8.404;2023-03-21T03:27:27;9.81;78.09
69387;SHT31;56575;48.942;8.404;2023-03-21T03:29:56;9.79;78.07
69387;SHT31;56575;48.942;8.404;2023-03-21T03:32:47;9.79;77.86
69387;SHT31;56575;48.942;8.404;2023-03-21T03:35:17;9.76;78.16
69387;SHT31;56575;48.942;8.404;2023-03-21T03:37:48;9.72;78.18
69387;SHT31;56575;48.942;8.404;2023-03-21T03:40:22;9.71;78.29
69387;SHT31;56575;48.942;8.404;2023-03-21T03:42:53;9.67;78.38
69387;SHT31;56575;48.942;8.404;2023-03-21T03:45:25;9.61;78.58
69387;SHT31;56575;48.942;8.404;2023-03-21T03:50:33;9.54;78.82
69387;SHT31;56575;48.942;8.404;2023-03-21T03:53:07;9.51;78.96
69387;SHT31;56575;48.942;8.404;2023-03-21T03:55:37;9.47;79.11
69387;SHT31;56575;48.942;8.404;2023-03-21T03:58:03;9.41;79.16
69387;SHT31;56575;48.942;8.404;2023-03-21T04:00:31;9.40;79.20
69387;SHT31;56575;48.942;8.404;2023-03-21T04:02:58;9.32;79.20
69387;SHT31;56575;48.942;8.404;2023-03-21T04:05:24;9.30;79.33
69387;SHT31;56575;48.942;8.404;2023-03-21T04:07:51;9.27;79.35
69387;SHT31;56575;48.942;8.404;2023-03-21T04:10:17;9.24;79.72
69387;SHT31;56575;48.942;8.404;2023-03-21T04:12:43;9.26;79.76
69387;SHT31;56575;48.942;8.404;2023-03-21T04:15:09;9.21;79.71
69387;SHT31;56575;48.942;8.404;2023-03-21T04:17:35;9.21;79.91
69387;SHT31;56575;48.942;8.404;2023-03-21T04:20:03;9.20;79.69
69387;SHT31;56575;48.942;8.404;2023-03-21T04:22:30;9.14;79.80
69387;SHT31;56575;48.942;8.404;2023-03-21T04:24:57;9.13;80.08
69387;SHT31;56575;48.942;8.404;2023-03-21T04:27:23;9.17;80.19
69387;SHT31;56575;48.942;8.404;2023-03-21T04:29:48;9.14;80.19
69387;SHT31;56575;48.942;8.404;2023-03-21T04:32:13;9.13;80.08
69387;SHT31;56575;48.942;8.404;2023-03-21T04:34:44;9.09;80.28
69387;SHT31;56575;48.942;8.404;2023-03-21T04:37:16;9.09;80.36
69387;SHT31;56575;48.942;8.404;2023-03-21T04:39:43;9.09;80.32
69387;SHT31;56575;48.942;8.404;2023-03-21T04:42:11;9.09;80.19
69387;SHT31;56575;48.942;8.404;2023-03-21T04:44:38;9.10;80.25
69387;SHT31;56575;48.942;8.404;2023-03-21T04:47:04;9.10;80.20
69387;SHT31;56575;48.942;8.404;2023-03-21T04:49:29;9.10;80.06
69387;SHT31;56575;48.942;8.404;2023-03-21T04:51:55;9.12;80.15
69387;SHT31;56575;48.942;8.404;2023-03-21T04:54:20;9.06;80.07
69387;SHT31;56575;48.942;8.404;2023-03-21T04:56:45;9.04;80.13
69387;SHT31;56575;48.942;8.404;2023-03-21T04:59:13;8.96;80.36
69387;SHT31;56575;48.942;8.404;2023-03-21T05:01:39;8.96;80.30
69387;SHT31;56575;48.942;8.404;2023-03-21T05:04:05;8.89;80.44
69387;SHT31;56575;48.942;8.404;2023-03-21T05:06:31;8.86;80.83
69387;SHT31;56575;48.942;8.404;2023-03-21T05:08:59;8.80;80.72
69387;SHT31;56575;48.942;8.404;2023-03-21T05:11:26;8.80;80.85
69387;SHT31;56575;48.942;8.404;2023-03-21T05:13:52;8.76;81.09
69387;SHT31;56575;48.942;8.404;2023-03-21T05:16:17;8.73;80.96
69387;SHT31;56575;48.942;8.404;2023-03-21T05:18:43;8.66;81.11
69387;SHT31;56575;48.942;8.404;2023-03-21T05:21:08;8.64;81.08
69387;SHT31;56575;48.942;8.404;2023-03-21T05:23:35;8.65;80.90
69387;SHT31;56575;48.942;8.404;2023-03-21T05:26:07;8.64;81.05
69387;SHT31;56575;48.942;8.404;2023-03-21T05:28:33;8.58;80.89
69387;SHT31;56575;48.942;8.404;2023-03-21T05:31:04;8.59;81.03
69387;SHT31;56575;48.942;8.404;2023-03-21T05:33:30;8.57;81.16
69387;SHT31;56575;48.942;8.404;2023-03-21T05:35:57;8.57;80.99
69387;SHT31;56575;48.942;8.404;2023-03-21T05:38:23;8.51;81.06
69387;SHT31;56575;48.942;8.404;2023-03-21T05:40:49;8.49;81.22
69387;SHT31;56575;48.942;8.404;2023-03-21T05:43:15;8.45;81.28
69387;SHT31;56575;48.942;8.404;2023-03-21T05:45:40;8.47;81.56
69387;SHT31;56575;48.942;8.404;2023-03-21T05:48:06;8.44;81.67
69387;SHT31;56575;48.942;8.404;2023-03-21T05:50:31;8.38;81.32
69387;SHT31;56575;48.942;8.404;2023-03-21T05:52:57;8.37;81.42
69387;SHT31;56575;48.942;8.404;2023-03-21T05:55:22;8.36;81.78
69387;SHT31;56575;48.942;8.404;2023-03-21T05:57:48;8.34;81.89
69387;SHT31;56575;48.942;8.404;2023-03-21T06:00:14;8.34;81.98
69387;SHT31;56575;48.942;8.404;2023-03-21T06:02:40;8.36;81.73
69387;SHT31;56575;48.942;8.404;2023-03-21T06:05:06;8.34;81.79
69387;SHT31;56575;48.942;8.404;2023-03-21T06:07:32;8.36;81.70
69387;SHT31;56575;48.942;8.404;2023-03-21T06:09:58;8.34;81.21
69387;SHT31;56575;48.942;8.404;2023-03-21T06:12:23;8.33;81.44
69387;SHT31;56575;48.942;8.404;2023-03-21T06:14:50;8.31;81.02
69387;SHT31;56575;48.942;8.404;2023-03-21T06:17:15;8.26;80.96
69387;SHT31;56575;48.942;8.404;2023-03-21T06:19:41;8.23;81.12
69387;SHT31;56575;48.942;8.404;2023-03-21T06:22:06;8.26;80.79
69387;SHT31;56575;48.942;8.404;2023-03-21T06:24:32;8.29;80.97
69387;SHT31;56575;48.942;8.404;2023-03-21T06:26:57;8.37;80.68
69387;SHT31;56575;48.942;8.404;2023-03-21T06:29:23;8.44;80.48
69387;SHT31;56575;48.942;8.404;2023-03-21T06:31:49;8.49;80.14
69387;SHT31;56575;48.942;8.404;2023-03-21T06:34:15;8.58;80.27
69387;SHT31;56575;48.942;8.404;2023-03-21T06:36:40;8.64;79.66
69387;SHT31;56575;48.942;8.404;2023-03-21T06:39:09;8.68;79.62
69387;SHT31;56575;48.942;8.404;2023-03-21T06:41:35;8.75;79.36
69387;SHT31;56575;48.942;8.404;2023-03-21T06:44:00;8.82;78.71
69387;SHT31;56575;48.942;8.404;2023-03-21T06:46:26;8.89;78.72
69387;SHT31;56575;48.942;8.404;2023-03-21T06:48:51;8.92;78.41
69387;SHT31;56575;48.942;8.404;2023-03-21T06:51:17;8.93;78.22
69387;SHT31;56575;48.942;8.404;2023-03-21T06:53:42;8.97;78.33
69387;SHT31;56575;48.942;8.404;2023-03-21T06:56:09;8.96;77.94
69387;SHT31;56575;48.942;8.404;2023-03-21T06:58:35;9.02;78.46
69387;SHT31;56575;48.942;8.404;2023-03-21T07:01:02;9.03;77.81
69387;SHT31;56575;48.942;8.404;2023-03-21T07:03:28;9.00;77.43
69387;SHT31;56575;48.942;8.404;2023-03-21T07:05:53;9.06;77.63
69387;SHT31;56575;48.942;8.404;2023-03-21T07:08:20;9.09;77.75
69387;SHT31;56575;48.942;8.404;2023-03-21T07:10:45;9.12;77.78
69387;SHT31;56575;48.942;8.404;2023-03-21T07:13:11;9.03;77.89
69387;SHT31;56575;48.942;8.404;2023-03-21T07:15:38;9.04;76.84
69387;SHT31;56575;48.942;8.404;2023-03-21T07:18:06;9.07;76.44
69387;SHT31;56575;48.942;8.404;2023-03-21T07:20:32;9.14;76.70
69387;SHT31;56575;48.942;8.404;2023-03-21T07:22:57;9.30;76.81
69387;SHT31;56575;48.942;8.404;2023-03-21T07:25:23;9.41;77.05
69387;SHT31;56575;48.942;8.404;2023-03-21T07:27:49;9.54;76.80
69387;SHT31;56575;48.942;8.404;2023-03-21T07:30:15;9.67;75.83
69387;SHT31;56575;48.942;8.404;2023-03-21T07:32:41;9.85;75.56
69387;SHT31;56575;48.942;8.404;2023-03-21T07:35:10;9.95;73.83
69387;SHT31;56575;48.942;8.404;2023-03-21T07:37:36;9.87;73.67
69387;SHT31;56575;48.942;8.404;2023-03-21T07:40:01;10.02;74.02
69387;SHT31;56575;48.942;8.404;2023-03-21T07:42:33;10.12;73.79
69387;SHT31;56575;48.942;8.404;2023-03-21T07:45:00;10.18;73.46
69387;SHT31;56575;48.942;8.404;2023-03-21T07:47:26;10.25;73.08
69387;SHT31;56575;48.942;8.404;2023-03-21T07:49:53;10.31;72.48
69387;SHT31;56575;48.942;8.404;2023-03-21T07:52:18;10.41;72.37
69387;SHT31;56575;48.942;8.404;2023-03-21T07:54:44;10.37;72.33
69387;SHT31;56575;48.942;8.404;2023-03-21T07:57:09;10.48;71.85
69387;SHT31;56575;48.942;8.404;2023-03-21T07:59:35;10.54;71.54
69387;SHT31;56575;48.942;8.404;2023-03-21T08:02:01;10.68;72.10
69387;SHT31;56575;48.942;8.404;2023-03-21T08:04:26;10.55;70.61
69387;SHT31;56575;48.942;8.404;2023-03-21T08:06:52;10.55;71.92
69387;SHT31;56575;48.942;8.404;2023-03-21T08:09:17;10.78;71.08
69387;SHT31;56575;48.942;8.404;2023-03-21T08:11:42;11.00;70.67
69387;SHT31;56575;48.942;8.404;2023-03-21T08:14:08;11.12;70.78
69387;SHT31;56575;48.942;8.404;2023-03-21T08:16:33;11.19;69.65
69387;SHT31;56575;48.942;8.404;2023-03-21T08:18:59;11.30;69.65
69387;SHT31;56575;48.942;8.404;2023-03-21T08:21:24;11.47;69.76
69387;SHT31;56575;48.942;8.404;2023-03-21T08:23:50;11.61;69.42
69387;SHT31;56575;48.942;8.404;2023-03-21T08:26:16;11.58;68.74
69387;SHT31;56575;48.942;8.404;2023-03-21T08:28:43;11.68;69.29
69387;SHT31;56575;48.942;8.404;2023-03-21T08:31:10;11.82;68.45
69387;SHT31;56575;48.942;8.404;2023-03-21T08:33:36;11.92;68.14
69387;SHT31;56575;48.942;8.404;2023-03-21T08:36:02;11.99;67.71
69387;SHT31;56575;48.942;8.404;2023-03-21T08:38:28;12.06;67.38
69387;SHT31;56575;48.942;8.404;2023-03-21T08:40:55;12.21;67.67
69387;SHT31;56575;48.942;8.404;2023-03-21T08:43:22;12.29;66.90
69387;SHT31;56575;48.942;8.404;2023-03-21T08:45:48;12.34;66.51
69387;SHT31;56575;48.942;8.404;2023-03-21T08:48:14;12.47;67.57
69387;SHT31;56575;48.942;8.404;2023-03-21T08:50:39;12.50;65.99
69387;SHT31;56575;48.942;8.404;2023-03-21T08:53:05;12.55;66.19
69387;SHT31;56575;48.942;8.404;2023-03-21T08:55:30;12.65;65.71
69387;SHT31;56575;48.942;8.404;2023-03-21T08:57:57;12.82;66.05
69387;SHT31;56575;48.942;8.404;2023-03-21T09:00:23;12.97;64.93
69387;SHT31;56575;48.942;8.404;2023-03-21T09:02:50;12.92;64.34
69387;SHT31;56575;48.942;8.404;2023-03-21T09:05:16;12.96;65.35
69387;SHT31;56575;48.942;8.404;2023-03-21T09:07:43;13.00;64.70
69387;SHT31;56575;48.942;8.404;2023-03-21T09:10:13;12.95;64.47
69387;SHT31;56575;48.942;8.404;2023-03-21T09:12:39;12.74;64.97
69387;SHT31;56575;48.942;8.404;2023-03-21T09:15:06;12.79;65.80
69387;SHT31;56575;48.942;8.404;2023-03-21T09:17:32;12.76;65.24
69387;SHT31;56575;48.942;8.404;2023-03-21T09:19:57;12.85;65.74
69387;SHT31;56575;48.942;8.404;2023-03-21T09:22:25;12.96;65.77
69387;SHT31;56575;48.942;8.404;2023-03-21T09:24:51;12.93;65.04
69387;SHT31;56575;48.942;8.404;2023-03-21T09:27:18;13.00;64.66
69387;SHT31;56575;48.942;8.404;2023-03-21T09:29:49;13.09;65.11
69387;SHT31;56575;48.942;8.404;2023-03-21T09:32:15;13.12;64.11
69387;SHT31;56575;48.942;8.404;2023-03-21T09:34:43;13.20;63.83
69387;SHT31;56575;48.942;8.404;2023-03-21T09:37:08;13.13;63.92
69387;SHT31;56575;48.942;8.404;2023-03-21T09:39:40;13.09;64.80
69387;SHT31;56575;48.942;8.404;2023-03-21T09:43:30;12.99;64.64
69387;SHT31;56575;48.942;8.404;2023-03-21T09:45:41;13.09;64.65
69387;SHT31;56575;48.942;8.404;2023-03-21T09:48:20;13.13;64.80
69387;SHT31;56575;48.942;8.404;2023-03-21T09:50:50;13.21;64.30
69387;SHT31;56575;48.942;8.404;2023-03-21T09:53:26;13.26;64.06
69387;SHT31;56575;48.942;8.404;2023-03-21T09:55:53;13.30;64.04
69387;SHT31;56575;48.942;8.404;2023-03-21T09:58:32;13.34;63.87
69387;SHT31;56575;48.942;8.404;2023-03-21T10:01:09;13.24;64.45
69387;SHT31;56575;48.942;8.404;2023-03-21T10:03:47;13.06;64.23
69387;SHT31;56575;48.942;8.404;2023-03-21T10:06:14;13.16;64.51
69387;SHT31;56575;48.942;8.404;2023-03-21T10:08:45;13.30;64.19
69387;SHT31;56575;48.942;8.404;2023-03-21T10:11:18;13.20;63.47
69387;SHT31;56575;48.942;8.404;2023-03-21T10:14:09;13.28;63.90
69387;SHT31;56575;48.942;8.404;2023-03-21T10:16:42;13.40;63.53
69387;SHT31;56575;48.942;8.404;2023-03-21T10:19:17;13.44;63.51
69387;SHT31;56575;48.942;8.404;2023-03-21T10:21:47;13.51;63.41
69387;SHT31;56575;48.942;8.404;2023-03-21T10:24:16;13.46;63.51
69387;SHT31;56575;48.942;8.404;2023-03-21T10:26:43;13.31;63.41
69387;SHT31;56575;48.942;8.404;2023-03-21T10:29:11;12.82;65.47
69387;SHT31;56575;48.942;8.404;2023-03-21T10:31:38;13.04;65.25
69387;SHT31;56575;48.942;8.404;2023-03-21T10:37:11;13.34;63.82
69387;SHT31;56575;48.942;8.404;2023-03-21T10:39:40;13.44;64.06
69387;SHT31;56575;48.942;8.404;2023-03-21T10:42:24;13.51;62.88
69387;SHT31;56575;48.942;8.404;2023-03-21T10:44:52;13.55;63.43
69387;SHT31;56575;48.942;8.404;2023-03-21T10:47:39;13.76;63.07
69387;SHT31;56575;48.942;8.404;2023-03-21T10:50:07;13.87;61.91
69387;SHT31;56575;48.942;8.404;2023-03-21T10:52:33;14.09;62.37
69387;SHT31;56575;48.942;8.404;2023-03-21T10:55:22;13.98;60.20
69387;SHT31;56575;48.942;8.404;2023-03-21T10:57:59;13.86;61.10
69387;SHT31;56575;48.942;8.404;2023-03-21T11:00:34;14.20;60.74
69387;SHT31;56575;48.942;8.404;2023-03-21T11:03:00;14.52;60.36
69387;SHT31;56575;48.942;8.404;2023-03-21T11:05:37;14.68;58.98
69387;SHT31;56575;48.942;8.404;2023-03-21T11:08:11;14.61;58.72
69387;SHT31;56575;48.942;8.404;2023-03-21T11:10:59;14.41;59.12
69387;SHT31;56575;48.942;8.404;2023-03-21T11:13:39;14.38;60.12
69387;SHT31;56575;48.942;8.404;2023-03-21T11:18:43;14.50;59.06
69387;SHT31;56575;48.942;8.404;2023-03-21T11:21:12;14.61;58.90
69387;SHT31;56575;48.942;8.404;2023-03-21T11:23:41;14.84;57.40
69387;SHT31;56575;48.942;8.404;2023-03-21T11:26:14;15.71;54.64
69387;SHT31;56575;48.942;8.404;2023-03-21T11:28:41;16.24;53.66
69387;SHT31;56575;48.942;8.404;2023-03-21T11:31:09;16.39;52.79
69387;SHT31;56575;48.942;8.404;2023-03-21T11:33:39;16.48;52.56
69387;SHT31;56575;48.942;8.404;2023-03-21T11:36:26;16.61;51.90
69387;SHT31;56575;48.942;8.404;2023-03-21T11:38:58;17.23;50.80
69387;SHT31;56575;48.942;8.404;2023-03-21T11:41:27;18.23;47.74
69387;SHT31;56575;48.942;8.404;2023-03-21T11:43:53;18.63;46.58
69387;SHT31;56575;48.942;8.404;2023-03-21T11:46:24;19.30;46.53
69387;SHT31;56575;48.942;8.404;2023-03-21T11:48:50;19.51;44.20
69387;SHT31;56575;48.942;8.404;2023-03-21T11:51:37;20.02;44.05
69387;SHT31;56575;48.942;8.404;2023-03-21T12:03:02;20.06;43.00
69387;SHT31;56575;48.942;8.404;2023-03-21T12:05:41;20.28;44.28
69387;SHT31;56575;48.942;8.404;2023-03-21T12:10:55;20.09;43.47
69387;SHT31;56575;48.942;8.404;2023-03-21T12:21:17;20.53;42.79
69387;SHT31;56575;48.942;8.404;2023-03-21T12:24:09;20.48;43.22
69387;SHT31;56575;48.942;8.404;2023-03-21T12:26:51;19.95;43.00
69387;SHT31;56575;48.942;8.404;2023-03-21T12:43:19;19.96;43.10
69387;SHT31;56575;48.942;8.404;2023-03-21T12:45:45;20.20;43.31
69387;SHT31;56575;48.942;8.404;2023-03-21T12:51:06;19.36;43.88
69387;SHT31;56575;48.942;8.404;2023-03-21T12:56:26;20.11;42.35
69387;SHT31;56575;48.942;8.404;2023-03-21T12:58:57;19.81;41.92
69387;SHT31;56575;48.942;8.404;2023-03-21T13:01:24;20.25;40.48
69387;SHT31;56575;48.942;8.404;2023-03-21T13:06:31;21.45;38.98
69387;SHT31;56575;48.942;8.404;2023-03-21T13:09:23;21.47;39.02
69387;SHT31;56575;48.942;8.404;2023-03-21T13:11:56;20.71;40.08
69387;SHT31;56575;48.942;8.404;2023-03-21T13:14:29;20.06;41.26
69387;SHT31;56575;48.942;8.404;2023-03-21T13:17:07;20.16;41.86
69387;SHT31;56575;48.942;8.404;2023-03-21T13:22:48;20.29;41.42
69387;SHT31;56575;48.942;8.404;2023-03-21T13:25:23;20.12;41.08
69387;SHT31;56575;48.942;8.404;2023-03-21T13:27:53;19.71;41.89
69387;SHT31;56575;48.942;8.404;2023-03-21T13:30:24;19.34;43.34
69387;SHT31;56575;48.942;8.404;2023-03-21T13:33:11;19.16;42.92
69387;SHT31;56575;48.942;8.404;2023-03-21T13:35:39;19.45;43.32
69387;SHT31;56575;48.942;8.404;2023-03-21T13:38:24;18.84;43.24
69387;SHT31;56575;48.942;8.404;2023-03-21T13:48:53;18.39;45.53
69387;SHT31;56575;48.942;8.404;2023-03-21T13:54:20;18.01;45.51
69387;SHT31;56575;48.942;8.404;2023-03-21T13:59:16;18.29;45.59
69387;SHT31;56575;48.942;8.404;2023-03-21T14:04:42;18.33;45.25
69387;SHT31;56575;48.942;8.404;2023-03-21T14:07:20;18.53;45.10
69387;SHT31;56575;48.942;8.404;2023-03-21T14:09:59;18.51;46.37
69387;SHT31;56575;48.942;8.404;2023-03-21T14:12:33;17.95;46.48
69387;SHT31;56575;48.942;8.404;2023-03-21T14:15:07;17.79;47.79
69387;SHT31;56575;48.942;8.404;2023-03-21T14:17:34;17.84;46.42
69387;SHT31;56575;48.942;8.404;2023-03-21T14:20:25;17.54;46.21
69387;SHT31;56575;48.942;8.404;2023-03-21T14:22:51;17.46;47.25
69387;SHT31;56575;48.942;8.404;2023-03-21T14:25:20;17.41;47.78
69387;SHT31;56575;48.942;8.404;2023-03-21T14:27:52;17.34;48.20
69387;SHT31;56575;48.942;8.404;2023-03-21T14:30:39;17.05;47.67
69387;SHT31;56575;48.942;8.404;2023-03-21T14:36:02;17.16;47.92
69387;SHT31;56575;48.942;8.404;2023-03-21T14:38:34;17.20;48.01
69387;SHT31;56575;48.942;8.404;2023-03-21T14:41:00;17.19;47.74
69387;SHT31;56575;48.942;8.404;2023-03-21T14:43:26;17.10;48.37
69387;SHT31;56575;48.942;8.404;2023-03-21T14:45:55;16.93;47.36
69387;SHT31;56575;48.942;8.404;2023-03-21T14:48:28;16.82;47.97
69387;SHT31;56575;48.942;8.404;2023-03-21T14:50:55;16.78;48.50
69387;SHT31;56575;48.942;8.404;2023-03-21T14:53:38;16.74;48.75
69387;SHT31;56575;48.942;8.404;2023-03-21T14:56:21;16.74;48.79
69387;SHT31;56575;48.942;8.404;2023-03-21T14:58:47;16.64;48.70
69387;SHT31;56575;48.942;8.404;2023-03-21T15:01:25;16.63;48.97
69387;SHT31;56575;48.942;8.404;2023-03-21T15:03:51;16.69;48.64
69387;SHT31;56575;48.942;8.404;2023-03-21T15:06:17;16.74;48.31
69387;SHT31;56575;48.942;8.404;2023-03-21T15:09:03;16.79;48.30
69387;SHT31;56575;48.942;8.404;2023-03-21T15:11:30;16.84;48.44
69387;SHT31;56575;48.942;8.404;2023-03-21T15:13:58;16.74;47.79
69387;SHT31;56575;48.942;8.404;2023-03-21T15:16:24;16.74;47.29
69387;SHT31;56575;48.942;8.404;2023-03-21T15:18:50;16.67;46.78
69387;SHT31;56575;48.942;8.404;2023-03-21T15:21:22;16.65;46.50
69387;SHT31;56575;48.942;8.404;2023-03-21T15:23:55;16.63;46.64
69387;SHT31;56575;48.942;8.404;2023-03-21T15:26:24;16.54;46.37
69387;SHT31;56575;48.942;8.404;2023-03-21T15:28:55;16.48;45.25
69387;SHT31;56575;48.942;8.404;2023-03-21T15:31:23;16.46;45.59
69387;SHT31;56575;48.942;8.404;2023-03-21T15:33:51;16.41;44.99
69387;SHT31;56575;48.942;8.404;2023-03-21T15:36:20;16.43;45.53
69387;SHT31;56575;48.942;8.404;2023-03-21T15:38:46;16.43;45.77
69387;SHT31;56575;48.942;8.404;2023-03-21T15:41:31;16.24;45.74
69387;SHT31;56575;48.942;8.404;2023-03-21T15:46:46;16.31;46.36
69387;SHT31;56575;48.942;8.404;2023-03-21T15:51:44;16.37;45.78
69387;SHT31;56575;48.942;8.404;2023-03-21T15:54:13;16.40;46.38
69387;SHT31;56575;48.942;8.404;2023-03-21T15:56:39;16.44;46.34
69387;SHT31;56575;48.942;8.404;2023-03-21T15:59:12;16.41;46.21
69387;SHT31;56575;48.942;8.404;2023-03-21T16:01:38;16.43;46.56
69387;SHT31;56575;48.942;8.404;2023-03-21T16:04:08;16.39;46.49
69387;SHT31;56575;48.942;8.404;2023-03-21T16:06:36;16.33;47.43
69387;SHT31;56575;48.942;8.404;2023-03-21T16:11:47;16.29;48.17
69387;SHT31;56575;48.942;8.404;2023-03-21T16:14:13;16.29;47.77
69387;SHT31;56575;48.942;8.404;2023-03-21T16:16:38;16.30;48.57
69387;SHT31;56575;48.942;8.404;2023-03-21T16:19:05;16.26;48.49
69387;SHT31;56575;48.942;8.404;2023-03-21T16:21:32;16.21;48.45
69387;SHT31;56575;48.942;8.404;2023-03-21T16:23:59;16.26;48.70
69387;SHT31;56575;48.942;8.404;2023-03-21T16:26:26;16.09;49.11
69387;SHT31;56575;48.942;8.404;2023-03-21T16:28:53;15.99;49.58
69387;SHT31;56575;48.942;8.404;2023-03-21T16:31:21;15.92;49.79
69387;SHT31;56575;48.942;8.404;2023-03-21T16:33:47;15.85;49.90
69387;SHT31;56575;48.942;8.404;2023-03-21T16:36:33;15.79;50.40
69387;SHT31;56575;48.942;8.404;2023-03-21T16:39:13;15.82;50.34
69387;SHT31;56575;48.942;8.404;2023-03-21T16:41:40;15.81;50.57
69387;SHT31;56575;48.942;8.404;2023-03-21T16:44:05;15.74;52.48
69387;SHT31;56575;48.942;8.404;2023-03-21T16:46:31;15.68;51.67
69387;SHT31;56575;48.942;8.404;2023-03-21T16:48:57;15.65;51.54
69387;SHT31;56575;48.942;8.404;2023-03-21T16:51:24;15.62;51.47
69387;SHT31;56575;48.942;8.404;2023-03-21T16:53:53;15.59;51.77
69387;SHT31;56575;48.942;8.404;2023-03-21T16:56:36;15.58;51.74
69387;SHT31;56575;48.942;8.404;2023-03-21T16:59:02;15.55;51.52
69387;SHT31;56575;48.942;8.404;2023-03-21T17:01:30;15.53;51.58
69387;SHT31;56575;48.942;8.404;2023-03-21T17:03:57;15.50;51.79
69387;SHT31;56575;48.942;8.404;2023-03-21T17:06:24;15.44;52.11
69387;SHT31;56575;48.942;8.404;2023-03-21T17:08:51;15.43;51.86
69387;SHT31;56575;48.942;8.404;2023-03-21T17:11:19;15.37;52.05
69387;SHT31;56575;48.942;8.404;2023-03-21T17:13:53;15.37;52.26
69387;SHT31;56575;48.942;8.404;2023-03-21T17:16:22;15.39;52.56
69387;SHT31;56575;48.942;8.404;2023-03-21T17:18:49;15.39;53.28
69387;SHT31;56575;48.942;8.404;2023-03-21T17:21:20;15.36;54.38
69387;SHT31;56575;48.942;8.404;2023-03-21T17:23:47;15.36;54.16
69387;SHT31;56575;48.942;8.404;2023-03-21T17:26:17;15.36;54.93
69387;SHT31;56575;48.942;8.404;2023-03-21T17:28:43;15.34;54.66
69387;SHT31;56575;48.942;8.404;2023-03-21T17:31:14;15.34;54.59
69387;SHT31;56575;48.942;8.404;2023-03-21T17:33:41;15.33;54.94
69387;SHT31;56575;48.942;8.404;2023-03-21T17:36:12;15.31;54.46
69387;SHT31;56575;48.942;8.404;2023-03-21T17:38:38;15.29;55.13
69387;SHT31;56575;48.942;8.404;2023-03-21T17:41:04;15.23;54.91
69387;SHT31;56575;48.942;8.404;2023-03-21T17:43:29;15.22;54.93
69387;SHT31;56575;48.942;8.404;2023-03-21T17:45:55;15.16;54.86